Portada
METAR-TAF:

METAR-TAF

Aeropuertos :

Asunción, Paraguay

Aeropuerto Internacional Silvio Pettirossi

latitud: 25-16S, longitud: 057-38W, altitud: 101 m

Observación

El informe se hizo hace 11 minutos, a las 12:30 UTC
Viento 6 kt del noreste
Temperatura 24°C
Humedad 44%
Presión 1019 hPa
Visibilidad 10 km o más
sin nubes por debajo de 1500 m y sin presencia de cumulonimbus.

METAR: SGAS 271230Z 05006KT CAVOK 24/11 Q1019

Hora: 08:41 (12:41 UTC)

Pronóstico

El informe se hizo hace 2 horas y 7 minutos, a las 10:34 UTC
Pronóstico válido del 27 a las 12 UTC al 28 a las 12 UTC
Viento 2 kt del este-sureste
Visibilidad 10 km o más
sin nubes por debajo de 1500 m y sin presencia de cumulonimbus.
Evolucionando progresivamente
del 27 a las 14 UTC al 27 a las 17 UTC
Viento 6 kt del noreste
Visibilidad 10 km o más
sin nubes por debajo de 1500 m y sin presencia de cumulonimbus.

TAF: SGAS 271034Z 2712/2812 11002KT CAVOK TX33/2719Z TN17/2810Z BECMG 2714/2717 05006KT CAVOK

Observaciones y pronósticos meteorológicos de más de 4000 aeropuertos (mensajes METAR y TAF).

Los puntos amarillos y rojos representan las estaciones disponibles.

Ponga el ratón en el punto deseado para ver el nombre de la estación.

Haga clic para ver las observaciones y los pronósticos meteorológicos.

Para cambiar el mapa : haga clic en los botones verdes con una cruz de color negro para hacer un zoom, en el botón verde con un guión para alejar o en las flechas verdes para mapas adyacentes.


METAR-TAF: